Time;durP1;ratioP1;P1;durP2;ratioP2;P2;SDS_P1;SDS_P2;PMS_P1;PMS_P2;Temp;Humidity;BMP_temperature;BMP_pressure;BME280_temperature;BME280_humidity;BME280_pressure;Samples;Min_cycle;Max_cycle;Signal;HPM_P1;HPM_P2
2023/12/05 00:00:05;;;;;;;26.20;12.40;;;-1.00;99.90;;;;;;5095644;27;20291;-50
2023/12/05 00:02:31;;;;;;;25.27;12.80;;;-1.00;99.90;;;;;;5094865;27;20224;-50
2023/12/05 00:04:56;;;;;;;23.13;12.17;;;-1.00;99.90;;;;;;5096369;27;20785;-50
2023/12/05 00:07:23;;;;;;;23.43;14.40;;;-1.00;99.90;;;;;;5094126;27;20253;-50
2023/12/05 00:09:49;;;;;;;25.80;13.07;;;-1.00;99.90;;;;;;5100307;27;20550;-50
2023/12/05 00:12:15;;;;;;;27.60;14.53;;;-1.00;99.90;;;;;;5101506;27;20447;-50
2023/12/05 00:14:41;;;;;;;25.97;13.57;;;-1.00;99.90;;;;;;5107259;27;20204;-50
2023/12/05 00:17:06;;;;;;;26.10;13.00;;;-1.00;99.90;;;;;;5104414;27;20454;-50
2023/12/05 00:19:32;;;;;;;25.10;13.20;;;-1.00;99.90;;;;;;5106327;27;20236;-50
2023/12/05 00:21:58;;;;;;;29.90;14.30;;;-1.00;99.90;;;;;;5111284;27;20234;-50
2023/12/05 00:24:23;;;;;;;21.50;12.43;;;-1.00;99.90;;;;;;5103568;27;20630;-51
2023/12/05 00:26:49;;;;;;;25.80;13.73;;;-1.00;99.90;;;;;;5105515;27;20195;-50
2023/12/05 00:29:15;;;;;;;28.97;15.00;;;-1.00;99.90;;;;;;5104308;27;20535;-51
2023/12/05 00:31:40;;;;;;;26.20;13.20;;;-1.00;99.90;;;;;;5100224;27;20197;-50
2023/12/05 00:34:06;;;;;;;25.20;13.97;;;-1.00;99.90;;;;;;5096617;27;20192;-52
2023/12/05 00:36:31;;;;;;;24.60;13.30;;;-1.10;99.90;;;;;;5110444;27;20190;-51
2023/12/05 00:38:57;;;;;;;29.63;14.77;;;-1.10;99.90;;;;;;5094808;27;20207;-50
2023/12/05 00:41:24;;;;;;;29.23;14.27;;;-1.10;99.90;;;;;;5103823;28;20231;-51
2023/12/05 00:43:51;;;;;;;22.67;13.40;;;-1.10;99.90;;;;;;5101017;27;20203;-50
2023/12/05 00:46:16;;;;;;;27.10;14.20;;;-1.10;99.90;;;;;;5090959;28;20947;-51
2023/12/05 00:48:42;;;;;;;28.43;14.40;;;-1.10;99.90;;;;;;5093097;28;20451;-50
2023/12/05 00:51:08;;;;;;;26.03;14.23;;;-1.10;99.90;;;;;;5093523;28;20213;-50
2023/12/05 00:53:34;;;;;;;28.87;14.97;;;-1.10;99.90;;;;;;5113131;28;20442;-50
2023/12/05 00:55:59;;;;;;;27.53;14.13;;;-1.00;99.90;;;;;;5113786;28;20207;-50
2023/12/05 00:58:25;;;;;;;23.77;12.60;;;-1.00;99.90;;;;;;5113023;28;20700;-50
2023/12/05 01:00:51;;;;;;;28.10;14.07;;;-1.00;99.90;;;;;;5094595;28;20193;-50
2023/12/05 01:03:16;;;;;;;21.47;11.80;;;-1.00;99.90;;;;;;5098840;28;20188;-50
2023/12/05 01:05:43;;;;;;;26.70;14.13;;;-0.90;99.90;;;;;;5105848;28;20225;-50
2023/12/05 01:08:08;;;;;;;28.43;14.13;;;-0.90;99.90;;;;;;5096120;27;20235;-51
2023/12/05 01:10:34;;;;;;;26.07;13.70;;;-0.90;99.90;;;;;;5108015;27;20491;-51
2023/12/05 01:13:02;;;;;;;26.50;13.90;;;-0.90;99.90;;;;;;5109784;28;20657;-51
2023/12/05 01:15:27;;;;;;;24.23;12.60;;;-0.90;99.90;;;;;;5099298;28;20259;-51
2023/12/05 01:17:53;;;;;;;21.80;12.83;;;-0.90;99.90;;;;;;5103502;28;20454;-50
2023/12/05 01:20:19;;;;;;;28.70;14.70;;;-0.90;99.90;;;;;;5097573;28;20189;-52
2023/12/05 01:22:45;;;;;;;25.07;12.80;;;-0.90;99.90;;;;;;5094764;28;20251;-50
2023/12/05 01:25:11;;;;;;;26.67;12.87;;;-0.90;99.90;;;;;;5095162;28;20922;-51
2023/12/05 01:27:36;;;;;;;27.60;13.70;;;-0.90;99.90;;;;;;5107249;28;20189;-51
2023/12/05 01:30:04;;;;;;;24.10;13.10;;;-0.90;99.90;;;;;;5100448;28;20936;-51
2023/12/05 01:32:29;;;;;;;25.83;13.33;;;-0.90;99.90;;;;;;5100027;28;20271;-51
2023/12/05 01:34:56;;;;;;;22.00;12.80;;;-0.90;99.90;;;;;;5093469;28;20490;-51
2023/12/05 01:37:22;;;;;;;25.60;14.03;;;-0.90;99.90;;;;;;5104769;28;20662;-51
2023/12/05 01:39:48;;;;;;;24.30;13.47;;;-0.90;99.90;;;;;;5097083;28;20575;-51
2023/12/05 01:42:13;;;;;;;25.80;13.90;;;-1.00;99.90;;;;;;5096624;28;20486;-51
2023/12/05 01:44:39;;;;;;;25.50;13.80;;;-0.90;99.90;;;;;;5096062;28;20779;-50
2023/12/05 01:47:06;;;;;;;28.90;14.10;;;-0.90;99.90;;;;;;5080447;28;20190;-52
2023/12/05 01:49:33;;;;;;;28.70;14.60;;;-0.90;99.90;;;;;;5093214;28;20191;-50
2023/12/05 01:52:00;;;;;;;26.60;13.40;;;-0.90;99.90;;;;;;5106001;28;20442;-51
2023/12/05 01:54:27;;;;;;;27.27;14.27;;;-0.90;99.90;;;;;;5099633;28;20462;-52
2023/12/05 01:56:55;;;;;;;26.03;13.90;;;-0.80;99.90;;;;;;5094612;28;20451;-51
2023/12/05 01:59:22;;;;;;;26.30;13.87;;;-0.80;99.90;;;;;;5095784;28;20466;-51
2023/12/05 02:01:49;;;;;;;29.63;13.87;;;-0.80;99.90;;;;;;5101545;27;20845;-50
2023/12/05 02:04:16;;;;;;;27.23;13.60;;;-0.80;99.90;;;;;;5098115;27;20438;-51
2023/12/05 02:06:42;;;;;;;25.03;13.20;;;-0.90;99.90;;;;;;5103305;27;20471;-51
2023/12/05 02:09:10;;;;;;;22.60;13.77;;;-0.90;99.90;;;;;;5105714;27;20487;-51
2023/12/05 02:11:36;;;;;;;31.07;14.97;;;-0.80;99.90;;;;;;5096652;27;20295;-51
2023/12/05 02:14:04;;;;;;;29.93;14.27;;;-0.70;99.90;;;;;;5095794;27;20434;-51
2023/12/05 02:16:53;;;;;;;25.20;12.50;;;-0.80;99.90;;;;;;5104632;27;20453;-50
2023/12/05 02:19:36;;;;;;;28.23;14.63;;;-0.70;99.90;;;;;;5105644;27;20425;-52
2023/12/05 02:22:06;;;;;;;25.50;14.20;;;-0.70;99.90;;;;;;5103311;27;20967;-51
2023/12/05 02:25:02;;;;;;;25.10;13.77;;;-0.80;99.90;;;;;;5113241;27;20448;-51
2023/12/05 02:27:38;;;;;;;24.40;13.17;;;-0.80;99.90;;;;;;5099832;27;20447;-50
2023/12/05 02:30:04;;;;;;;22.77;13.43;;;-0.80;99.90;;;;;;5103776;27;20434;-51
2023/12/05 02:32:29;;;;;;;25.40;14.13;;;-0.70;99.90;;;;;;5103391;27;20563;-52
2023/12/05 02:34:55;;;;;;;26.27;14.00;;;-0.80;99.90;;;;;;5104793;27;23826;-50
2023/12/05 02:37:23;;;;;;;29.10;14.43;;;-0.80;99.90;;;;;;5100519;27;20189;-51
2023/12/05 02:40:02;;;;;;;26.33;14.77;;;-0.80;99.90;;;;;;5104228;27;20193;-51
2023/12/05 02:42:30;;;;;;;26.13;15.20;;;-0.80;99.90;;;;;;5100779;27;20474;-51
2023/12/05 02:45:00;;;;;;;24.90;14.13;;;-0.80;99.90;;;;;;5095699;27;20434;-51
2023/12/05 02:47:29;;;;;;;30.93;15.10;;;-0.80;99.90;;;;;;5107864;27;20444;-51
2023/12/05 02:49:55;;;;;;;28.33;15.03;;;-0.80;99.90;;;;;;5103031;27;20438;-51
2023/12/05 02:52:21;;;;;;;28.03;15.10;;;-0.80;99.90;;;;;;5103069;27;20800;-50
2023/12/05 02:54:47;;;;;;;27.03;13.73;;;-0.80;99.90;;;;;;5107446;27;20438;-51
2023/12/05 02:57:12;;;;;;;28.43;15.90;;;-0.80;99.90;;;;;;5103209;27;20180;-51
2023/12/05 02:59:38;;;;;;;32.03;16.23;;;-0.80;99.90;;;;;;5097091;27;20526;-51
2023/12/05 03:02:04;;;;;;;31.97;15.90;;;-0.90;99.90;;;;;;5101967;27;20269;-51
2023/12/05 03:04:30;;;;;;;29.90;14.63;;;-0.90;99.90;;;;;;5101603;27;20213;-50
2023/12/05 03:06:55;;;;;;;30.80;16.00;;;-0.80;99.90;;;;;;5094052;27;20238;-51
2023/12/05 03:09:21;;;;;;;34.53;16.23;;;-0.90;99.90;;;;;;5103282;27;20442;-50
2023/12/05 03:11:47;;;;;;;33.33;17.07;;;-0.90;99.90;;;;;;5101616;27;20185;-50
2023/12/05 03:14:13;;;;;;;33.30;16.93;;;-0.90;99.90;;;;;;5102168;27;20220;-51
2023/12/05 03:16:39;;;;;;;33.40;16.27;;;-0.90;99.90;;;;;;5096676;27;20193;-50
2023/12/05 03:19:04;;;;;;;33.87;16.40;;;-0.90;99.90;;;;;;5109294;27;20432;-50
2023/12/05 03:21:30;;;;;;;29.60;16.10;;;-0.90;99.90;;;;;;5099450;27;20317;-50
2023/12/05 03:23:55;;;;;;;29.03;16.20;;;-0.90;99.90;;;;;;5101726;27;20189;-50
2023/12/05 03:26:22;;;;;;;31.07;16.77;;;-0.90;99.90;;;;;;5097690;27;20191;-50
2023/12/05 03:28:49;;;;;;;35.00;16.77;;;-0.90;99.90;;;;;;5094342;27;20200;-51
2023/12/05 03:31:15;;;;;;;36.03;17.07;;;-0.90;99.90;;;;;;5101551;27;20982;-51
2023/12/05 03:33:40;;;;;;;30.93;16.40;;;-0.90;99.90;;;;;;5102439;27;20506;-50
2023/12/05 03:36:06;;;;;;;36.37;19.03;;;-1.00;99.90;;;;;;5102617;27;20437;-50
2023/12/05 03:38:32;;;;;;;30.13;16.27;;;-1.00;99.90;;;;;;5110509;27;20250;-50
2023/12/05 03:40:58;;;;;;;34.80;18.27;;;-1.00;1.00;;;;;;5110494;27;20438;-51
2023/12/05 03:43:23;;;;;;;36.70;17.90;;;-1.00;1.00;;;;;;5111265;27;20304;-51
2023/12/05 03:45:49;;;;;;;36.97;18.50;;;-1.00;1.00;;;;;;5114115;27;20188;-50
2023/12/05 03:48:15;;;;;;;34.83;17.73;;;-1.00;1.00;;;;;;5108672;27;20248;-50
2023/12/05 03:50:40;;;;;;;36.13;17.70;;;-1.00;1.00;;;;;;5100218;27;20188;-51
2023/12/05 03:53:06;;;;;;;33.63;17.40;;;-1.00;1.00;;;;;;5106213;27;20202;-50
2023/12/05 03:55:35;;;;;;;33.70;17.73;;;-1.00;1.00;;;;;;5099042;27;20192;-50
2023/12/05 03:58:02;;;;;;;38.57;19.23;;;-1.10;1.00;;;;;;5095955;27;20192;-50
2023/12/05 04:00:27;;;;;;;41.77;19.17;;;-1.10;1.00;;;;;;5095454;27;20540;-50
2023/12/05 04:02:54;;;;;;;39.30;19.07;;;-1.10;1.00;;;;;;5100666;27;20554;-50
2023/12/05 04:05:20;;;;;;;38.93;19.30;;;-1.10;1.00;;;;;;5098962;27;20473;-50
2023/12/05 04:07:46;;;;;;;39.37;19.90;;;-1.10;1.00;;;;;;5099746;27;20443;-51
2023/12/05 04:10:12;;;;;;;42.20;21.00;;;-1.10;18.80;;;;;;5094739;27;20291;-50
2023/12/05 04:12:39;;;;;;;41.07;21.00;;;-1.00;27.50;;;;;;5093793;27;20825;-50
2023/12/05 04:15:05;;;;;;;35.37;19.10;;;-1.10;4.00;;;;;;5105207;27;20440;-51
2023/12/05 04:17:30;;;;;;;39.47;18.57;;;-1.10;22.90;;;;;;5101872;27;20540;-51
2023/12/05 04:19:56;;;;;;;42.97;20.77;;;-1.10;1.00;;;;;;5108935;27;20538;-51
2023/12/05 04:22:21;;;;;;;39.73;19.93;;;-1.20;13.80;;;;;;5110781;27;20324;-51
2023/12/05 04:24:47;;;;;;;41.87;21.33;;;-1.20;99.90;;;;;;5111908;27;20270;-51
2023/12/05 04:27:13;;;;;;;45.50;21.50;;;-1.20;99.90;;;;;;5096743;27;20223;-51
2023/12/05 04:29:39;;;;;;;45.63;20.83;;;-1.10;99.90;;;;;;5102635;27;20196;-52
2023/12/05 04:32:06;;;;;;;42.70;20.50;;;-1.20;99.90;;;;;;5100335;27;20450;-51
2023/12/05 04:34:32;;;;;;;44.97;22.47;;;-1.20;99.90;;;;;;5093728;27;20474;-52
2023/12/05 04:36:57;;;;;;;47.17;22.20;;;-1.20;99.90;;;;;;5101034;27;20477;-51
2023/12/05 04:39:23;;;;;;;44.60;22.00;;;-1.20;1.00;;;;;;5099908;27;20255;-51
2023/12/05 04:41:49;;;;;;;39.93;20.70;;;-1.20;1.00;;;;;;5094017;27;20220;-51
2023/12/05 04:44:15;;;;;;;47.63;21.63;;;-1.20;99.90;;;;;;5094344;28;20193;-52
2023/12/05 04:46:40;;;;;;;41.83;21.70;;;-1.20;1.00;;;;;;5102634;27;20645;-52
2023/12/05 04:49:06;;;;;;;48.60;23.57;;;-1.30;1.00;;;;;;5092569;27;20537;-51
2023/12/05 04:51:32;;;;;;;45.73;22.80;;;-1.30;99.90;;;;;;5094076;27;20936;-52
2023/12/05 04:53:58;;;;;;;43.83;21.90;;;-1.30;1.00;;;;;;5095819;27;20576;-51
2023/12/05 04:56:23;;;;;;;50.87;22.27;;;-1.30;99.90;;;;;;5095417;27;20187;-52
2023/12/05 04:58:49;;;;;;;42.43;22.00;;;-1.30;99.90;;;;;;5099873;27;20210;-51
2023/12/05 05:01:15;;;;;;;48.70;23.50;;;-1.30;99.90;;;;;;5102085;27;20219;-51
2023/12/05 05:03:40;;;;;;;47.00;23.07;;;-1.30;1.00;;;;;;5099900;27;20189;-51
2023/12/05 05:06:06;;;;;;;49.57;23.53;;;-1.40;1.00;;;;;;5101655;27;20286;-51
2023/12/05 05:08:32;;;;;;;47.97;24.17;;;-1.40;99.90;;;;;;5098824;27;20230;-52
2023/12/05 05:10:57;;;;;;;48.20;24.03;;;-1.40;99.90;;;;;;5103892;27;20196;-51
2023/12/05 05:13:23;;;;;;;48.03;23.33;;;-1.40;1.00;;;;;;5093105;27;20188;-52
2023/12/05 05:15:48;;;;;;;50.90;24.40;;;-1.40;1.00;;;;;;5095314;28;20191;-51
2023/12/05 05:18:14;;;;;;;49.07;22.10;;;-1.40;99.90;;;;;;5094697;28;20236;-51
2023/12/05 05:20:39;;;;;;;49.10;23.63;;;-1.40;99.90;;;;;;5093676;28;20548;-51
2023/12/05 05:23:06;;;;;;;48.60;23.83;;;-1.50;58.60;;;;;;5093875;28;20585;-51
2023/12/05 05:25:31;;;;;;;50.27;23.00;;;-1.50;1.00;;;;;;5105604;28;20190;-52
2023/12/05 05:27:57;;;;;;;53.83;24.87;;;-1.50;1.00;;;;;;5097280;28;20432;-51
2023/12/05 05:30:22;;;;;;;52.73;24.27;;;-1.50;99.90;;;;;;5097326;28;20179;-51
2023/12/05 05:32:48;;;;;;;58.93;26.27;;;-1.50;1.00;;;;;;5094585;28;20187;-51
2023/12/05 05:35:14;;;;;;;56.87;26.97;;;-1.50;1.00;;;;;;5094890;28;20678;-51
2023/12/05 05:37:39;;;;;;;53.60;27.03;;;-1.50;67.20;;;;;;5104484;27;20197;-51
2023/12/05 05:40:07;;;;;;;55.90;26.37;;;-1.50;99.90;;;;;;5106921;27;20667;-52
2023/12/05 05:42:32;;;;;;;56.73;27.17;;;-1.50;1.00;;;;;;5106719;27;20229;-51
2023/12/05 05:44:58;;;;;;;56.07;25.97;;;-1.50;1.00;;;;;;5104216;27;20426;-51
2023/12/05 05:47:24;;;;;;;54.60;25.57;;;-1.50;1.00;;;;;;5097389;27;20206;-51
2023/12/05 05:49:49;;;;;;;56.10;27.77;;;-1.50;87.30;;;;;;5102251;27;20186;-51
2023/12/05 05:52:15;;;;;;;59.80;27.30;;;-1.40;99.90;;;;;;5099711;27;20181;-51
2023/12/05 05:54:41;;;;;;;56.87;26.17;;;-1.40;99.90;;;;;;5095007;27;20183;-51
2023/12/05 05:57:06;;;;;;;60.90;27.57;;;-1.40;67.70;;;;;;5095814;27;20189;-51
2023/12/05 05:59:32;;;;;;;58.33;28.13;;;-1.40;99.90;;;;;;5104099;27;20551;-50
2023/12/05 06:01:58;;;;;;;54.43;26.37;;;-1.30;99.90;;;;;;5103354;27;20682;-51
2023/12/05 06:04:23;;;;;;;56.10;26.90;;;-1.30;1.00;;;;;;5096824;27;20193;-51
2023/12/05 06:06:49;;;;;;;53.80;27.37;;;-1.40;1.00;;;;;;5104452;27;20711;-50
2023/12/05 06:09:15;;;;;;;55.80;27.07;;;-1.40;1.00;;;;;;5097124;27;20706;-50
2023/12/05 06:11:41;;;;;;;55.07;27.27;;;-1.30;99.90;;;;;;5102221;27;20446;-50
2023/12/05 06:14:06;;;;;;;63.87;29.20;;;-1.40;99.90;;;;;;5110681;27;20215;-50
2023/12/05 06:16:32;;;;;;;57.73;27.70;;;-1.30;99.90;;;;;;5106680;27;20865;-50
2023/12/05 06:18:57;;;;;;;58.80;27.10;;;-1.30;99.90;;;;;;5103361;27;20752;-51
2023/12/05 06:21:23;;;;;;;58.90;27.77;;;-1.30;99.90;;;;;;5103617;27;20236;-52
2023/12/05 06:23:48;;;;;;;58.17;26.83;;;-1.40;1.00;;;;;;5101925;27;20195;-51
2023/12/05 06:26:14;;;;;;;61.60;27.93;;;-1.30;2.80;;;;;;5100139;27;20626;-50
2023/12/05 06:28:39;;;;;;;59.20;27.40;;;-1.30;1.00;;;;;;5103194;27;20251;-50
2023/12/05 06:31:05;;;;;;;61.17;27.63;;;-1.30;1.00;;;;;;5103649;27;20238;-51
2023/12/05 06:33:31;;;;;;;61.70;28.40;;;-1.30;1.00;;;;;;5108137;27;20286;-50
2023/12/05 06:35:56;;;;;;;59.93;27.17;;;-1.30;99.90;;;;;;5106421;27;20201;-51
2023/12/05 06:38:22;;;;;;;58.43;27.20;;;-1.30;99.90;;;;;;5105772;27;20248;-51
2023/12/05 06:40:47;;;;;;;55.80;26.67;;;-1.30;99.90;;;;;;5101578;27;20567;-50
2023/12/05 06:43:13;;;;;;;58.87;28.17;;;-1.30;1.00;;;;;;5107427;27;20595;-51
2023/12/05 06:45:39;;;;;;;58.93;27.67;;;-1.40;99.90;;;;;;5095936;27;20182;-50
2023/12/05 06:48:04;;;;;;;64.93;29.10;;;-1.40;1.00;;;;;;5101625;27;20272;-50
2023/12/05 06:50:30;;;;;;;67.20;30.73;;;-1.40;1.00;;;;;;5097369;27;20432;-51
2023/12/05 06:52:57;;;;;;;65.37;27.93;;;-1.30;99.90;;;;;;5096163;27;20697;-51
2023/12/05 06:55:26;;;;;;;66.00;29.93;;;-1.40;1.00;;;;;;5096393;27;20219;-52
2023/12/05 06:57:52;;;;;;;58.93;28.20;;;-1.30;99.90;;;;;;5102224;27;20526;-52
2023/12/05 07:00:18;;;;;;;61.10;29.37;;;-1.40;99.90;;;;;;5110393;27;20527;-52
2023/12/05 07:02:44;;;;;;;59.50;27.00;;;-1.40;99.90;;;;;;5108841;27;20264;-51
2023/12/05 07:05:10;;;;;;;56.17;27.50;;;-1.40;1.00;;;;;;5096980;27;20506;-51
2023/12/05 07:07:35;;;;;;;62.00;29.10;;;-1.40;1.00;;;;;;5099331;27;20200;-51
2023/12/05 07:10:01;;;;;;;62.73;29.70;;;-1.40;99.90;;;;;;5097109;27;20177;-51
2023/12/05 07:12:28;;;;;;;62.33;29.20;;;-1.40;99.90;;;;;;5101303;27;20279;-51
2023/12/05 07:14:53;;;;;;;56.00;28.70;;;-1.40;99.90;;;;;;5094341;27;20466;-52
2023/12/05 07:17:19;;;;;;;62.60;28.70;;;-1.30;87.00;;;;;;5103122;27;20470;-51
2023/12/05 07:19:44;;;;;;;63.40;29.90;;;-1.30;99.90;;;;;;5102195;27;20194;-51
2023/12/05 07:22:10;;;;;;;62.17;28.50;;;-1.30;88.10;;;;;;5100474;27;20216;-52
2023/12/05 07:24:36;;;;;;;63.80;30.37;;;-1.30;20.20;;;;;;5095395;27;20279;-52
2023/12/05 07:27:02;;;;;;;61.67;28.43;;;-1.30;1.00;;;;;;5096716;27;20189;-51
2023/12/05 07:29:28;;;;;;;56.23;27.87;;;-1.30;1.00;;;;;;5096632;27;20191;-52
2023/12/05 07:31:53;;;;;;;58.33;27.17;;;-1.30;99.90;;;;;;5104471;27;20434;-52
2023/12/05 07:34:19;;;;;;;64.37;29.37;;;-1.30;1.00;;;;;;5107703;27;20433;-52
2023/12/05 07:36:44;;;;;;;65.00;29.77;;;-1.30;1.00;;;;;;5098962;27;20181;-52
2023/12/05 07:39:12;;;;;;;59.43;28.80;;;-1.20;1.00;;;;;;5105628;27;20223;-52
2023/12/05 07:41:39;;;;;;;62.13;29.20;;;-1.20;99.90;;;;;;5109721;27;20668;-52
2023/12/05 07:44:06;;;;;;;65.67;28.83;;;-1.20;93.50;;;;;;5108953;27;20438;-52
2023/12/05 07:46:32;;;;;;;58.63;28.30;;;-1.20;1.00;;;;;;5102921;27;20517;-52
2023/12/05 07:48:58;;;;;;;60.70;29.63;;;-1.20;1.00;;;;;;5094328;27;20993;-52
2023/12/05 07:51:24;;;;;;;64.00;30.53;;;-1.20;1.00;;;;;;5096624;27;21092;-51
2023/12/05 07:53:53;;;;;;;59.07;27.90;;;-1.20;99.90;;;;;;5095928;27;20196;-52
2023/12/05 07:56:19;;;;;;;57.30;28.57;;;-1.20;99.90;;;;;;5095290;27;20231;-51
2023/12/05 07:58:45;;;;;;;59.23;28.67;;;-1.10;99.90;;;;;;5094597;27;20442;-53
2023/12/05 08:01:11;;;;;;;57.60;29.20;;;-1.10;99.90;;;;;;5096886;27;20495;-52
2023/12/05 08:03:37;;;;;;;59.33;28.97;;;-1.10;36.10;;;;;;5096746;27;20273;-51
2023/12/05 08:06:03;;;;;;;62.30;32.63;;;-1.20;77.10;;;;;;5097020;27;20437;-52
2023/12/05 08:08:34;;;;;;;64.07;32.20;;;-1.10;99.90;;;;;;5101359;27;20273;-53
2023/12/05 08:11:00;;;;;;;61.57;29.63;;;-1.10;99.90;;;;;;5093858;27;20461;-53
2023/12/05 08:13:26;;;;;;;59.47;28.70;;;-1.20;99.90;;;;;;5096868;27;20440;-52
2023/12/05 08:15:54;;;;;;;60.77;29.67;;;-1.10;99.90;;;;;;5096688;27;20541;-53
2023/12/05 08:18:19;;;;;;;64.20;30.10;;;-1.10;99.90;;;;;;5103568;27;20537;-52
2023/12/05 08:20:46;;;;;;;60.23;28.67;;;-1.10;99.90;;;;;;5103190;27;21055;-52
2023/12/05 08:23:11;;;;;;;58.03;29.80;;;-1.00;99.90;;;;;;5113336;27;20572;-50
2023/12/05 08:25:37;;;;;;;59.13;28.30;;;-1.00;99.90;;;;;;5103950;27;20442;-51
2023/12/05 08:28:02;;;;;;;62.33;29.93;;;-1.00;99.90;;;;;;5109106;27;20594;-50
2023/12/05 08:30:28;;;;;;;62.50;30.03;;;-1.00;99.90;;;;;;5103980;27;20200;-50
2023/12/05 08:32:57;;;;;;;60.10;29.60;;;-1.00;99.90;;;;;;5106191;27;20526;-51
2023/12/05 08:35:23;;;;;;;64.63;29.80;;;-1.00;1.00;;;;;;5103899;27;20692;-51
2023/12/05 08:37:49;;;;;;;83.63;38.57;;;-1.00;99.90;;;;;;5109532;27;20431;-50
2023/12/05 08:40:14;;;;;;;78.87;36.40;;;-1.00;99.90;;;;;;5106341;27;20536;-50
2023/12/05 08:42:42;;;;;;;60.27;29.60;;;-0.90;1.00;;;;;;5093322;28;20904;-50
2023/12/05 08:45:10;;;;;;;67.87;32.87;;;-0.80;1.00;;;;;;5094026;27;20184;-50
2023/12/05 08:47:36;;;;;;;68.43;39.50;;;-0.80;11.90;;;;;;5099810;27;20445;-50
2023/12/05 08:50:02;;;;;;;71.73;35.53;;;-0.80;1.00;;;;;;5098600;27;20455;-50
2023/12/05 08:52:28;;;;;;;61.83;31.63;;;-0.90;99.90;;;;;;5096401;27;20947;-49
2023/12/05 08:54:53;;;;;;;61.23;30.93;;;-0.90;99.90;;;;;;5093288;27;20507;-50
2023/12/05 08:57:19;;;;;;;58.77;30.60;;;-0.90;99.90;;;;;;5100084;27;20678;-50
2023/12/05 08:59:45;;;;;;;57.97;27.00;;;-0.90;99.90;;;;;;5103941;27;20673;-50
2023/12/05 09:02:10;;;;;;;64.87;31.77;;;-0.90;27.60;;;;;;5099119;27;20546;-50
2023/12/05 09:04:37;;;;;;;67.00;32.03;;;-0.80;86.20;;;;;;5094829;27;20290;-49
2023/12/05 09:07:03;;;;;;;64.87;33.27;;;-0.90;66.60;;;;;;5092556;27;20224;-50
2023/12/05 09:09:28;;;;;;;62.90;31.80;;;-0.90;98.40;;;;;;5104640;27;20890;-50
2023/12/05 09:11:54;;;;;;;66.57;30.10;;;-0.90;99.90;;;;;;5100586;27;20507;-50
2023/12/05 09:14:19;;;;;;;64.13;31.17;;;-0.90;99.90;;;;;;5094296;28;20253;-50
2023/12/05 09:16:45;;;;;;;60.73;30.50;;;-0.90;99.90;;;;;;5100095;27;20187;-49
2023/12/05 09:19:11;;;;;;;63.87;29.63;;;-0.90;99.90;;;;;;5096714;28;20187;-49
2023/12/05 09:21:36;;;;;;;71.60;32.87;;;-0.90;98.50;;;;;;5097006;28;20231;-50
2023/12/05 09:24:03;;;;;;;67.87;32.37;;;-0.90;99.90;;;;;;5093525;28;20702;-50
2023/12/05 09:26:29;;;;;;;67.00;32.70;;;-0.90;99.90;;;;;;5096107;28;20192;-50
2023/12/05 09:28:55;;;;;;;68.67;31.90;;;-0.80;99.90;;;;;;5096920;28;20816;-50
2023/12/05 09:31:20;;;;;;;68.83;32.73;;;-0.80;95.90;;;;;;5094833;28;20452;-50
2023/12/05 09:33:46;;;;;;;61.33;31.00;;;-0.80;99.90;;;;;;5098007;28;20207;-50
2023/12/05 09:36:11;;;;;;;64.33;31.20;;;-0.80;1.00;;;;;;5104649;28;20238;-49
2023/12/05 09:38:37;;;;;;;65.13;31.00;;;-0.80;1.00;;;;;;5103754;28;20203;-50
2023/12/05 09:41:03;;;;;;;66.77;31.37;;;-0.80;1.00;;;;;;5105047;28;20178;-50
2023/12/05 09:43:31;;;;;;;63.93;31.07;;;-0.80;1.00;;;;;;5108781;28;20242;-51
2023/12/05 09:46:00;;;;;;;63.53;31.30;;;-0.70;1.00;;;;;;5098293;28;20445;-50
2023/12/05 09:48:28;;;;;;;59.67;30.97;;;-0.60;1.00;;;;;;5100518;28;21078;-50
2023/12/05 09:50:55;;;;;;;63.07;29.93;;;-0.60;1.00;;;;;;5092542;28;20482;-50
2023/12/05 09:53:23;;;;;;;71.67;32.43;;;-0.60;99.90;;;;;;5093301;28;20451;-50
2023/12/05 09:55:49;;;;;;;65.07;32.60;;;-0.50;99.90;;;;;;5094094;28;20440;-50
2023/12/05 09:58:15;;;;;;;65.47;31.50;;;-0.40;99.90;;;;;;5099345;28;20438;-50
2023/12/05 10:00:44;;;;;;;67.53;30.43;;;-0.40;1.00;;;;;;5100452;28;20452;-50
2023/12/05 10:03:13;;;;;;;60.50;29.33;;;-0.30;1.00;;;;;;5093300;28;20243;-50
2023/12/05 10:05:42;;;;;;;64.57;31.30;;;-0.30;1.00;;;;;;5094548;28;20484;-50
2023/12/05 10:08:09;;;;;;;56.57;29.93;;;-0.20;1.00;;;;;;5099412;28;20452;-50
2023/12/05 10:10:38;;;;;;;64.80;30.23;;;-0.20;99.90;;;;;;5105631;28;20479;-50
2023/12/05 10:13:04;;;;;;;63.00;30.83;;;-0.10;99.90;;;;;;5101452;28;20446;-50
2023/12/05 10:15:30;;;;;;;61.07;30.00;;;-0.10;99.90;;;;;;5102332;28;21016;-50
2023/12/05 10:17:58;;;;;;;64.57;31.70;;;-0.10;99.90;;;;;;5103871;28;20188;-50
2023/12/05 10:20:24;;;;;;;56.43;28.80;;;0.00;99.90;;;;;;5101556;28;20442;-50
2023/12/05 10:22:51;;;;;;;55.33;29.50;;;0.10;99.90;;;;;;5097436;27;20482;-49
2023/12/05 10:25:17;;;;;;;54.10;28.23;;;0.20;99.90;;;;;;5109697;27;20441;-49
2023/12/05 10:27:43;;;;;;;55.30;29.00;;;0.20;9.20;;;;;;5111846;27;20947;-49
2023/12/05 10:30:09;;;;;;;59.43;31.37;;;0.30;1.00;;;;;;5104775;27;20442;-50
2023/12/05 10:32:36;;;;;;;59.07;30.13;;;0.40;1.00;;;;;;5109085;27;20545;-49
2023/12/05 10:35:03;;;;;;;65.07;31.07;;;0.40;1.00;;;;;;5087869;27;21223;-50
2023/12/05 10:37:29;;;;;;;61.17;31.87;;;0.40;1.00;;;;;;5106206;27;20445;-50
2023/12/05 10:39:56;;;;;;;61.20;32.03;;;0.30;1.00;;;;;;5108807;27;20541;-50
2023/12/05 10:42:27;;;;;;;52.53;27.90;;;0.30;1.00;;;;;;5096911;27;20485;-50
2023/12/05 10:44:52;;;;;;;57.63;30.23;;;0.30;1.00;;;;;;5102617;27;20453;-50
2023/12/05 10:47:18;;;;;;;50.70;27.97;;;0.30;1.00;;;;;;5097814;27;20516;-50
2023/12/05 10:49:43;;;;;;;55.03;29.10;;;0.30;1.00;;;;;;5096215;27;20642;-50
2023/12/05 10:52:11;;;;;;;62.63;30.40;;;0.20;1.00;;;;;;5098341;27;20673;-49
2023/12/05 10:54:38;;;;;;;52.03;27.20;;;0.20;1.00;;;;;;5104663;27;20186;-50
2023/12/05 10:57:09;;;;;;;57.17;29.77;;;0.10;1.00;;;;;;5103028;27;20443;-49
2023/12/05 10:59:35;;;;;;;56.83;28.77;;;0.10;1.00;;;;;;5102085;27;20823;-49
2023/12/05 11:02:02;;;;;;;54.77;30.23;;;0.10;1.00;;;;;;5096028;27;20865;-50
2023/12/05 11:04:28;;;;;;;61.07;30.60;;;0.00;1.00;;;;;;5099073;27;20442;-50
2023/12/05 11:06:53;;;;;;;63.90;30.63;;;0.10;1.00;;;;;;5101381;27;20569;-51
2023/12/05 11:09:20;;;;;;;66.60;30.47;;;0.10;1.00;;;;;;5096963;27;20341;-50
2023/12/05 11:11:48;;;;;;;61.60;30.67;;;0.20;1.00;;;;;;5101279;27;20669;-50
2023/12/05 11:14:19;;;;;;;55.43;28.10;;;0.00;1.00;;;;;;5102329;27;20526;-50
2023/12/05 11:16:53;;;;;;;57.53;28.90;;;0.10;1.00;;;;;;5095884;27;20446;-51
2023/12/05 11:19:42;;;;;;;52.53;27.80;;;0.00;1.00;;;;;;5094996;27;20435;-50
2023/12/05 11:22:26;;;;;;;56.70;28.37;;;0.10;1.00;;;;;;5094581;27;20511;-50
2023/12/05 11:25:16;;;;;;;54.67;27.87;;;0.10;1.00;;;;;;5095038;27;20439;-50
2023/12/05 11:28:03;;;;;;;57.07;30.70;;;0.20;1.00;;;;;;5110529;27;20819;-50
2023/12/05 11:30:47;;;;;;;57.57;30.00;;;0.30;1.00;;;;;;5108079;27;20437;-50
2023/12/05 11:33:29;;;;;;;57.10;29.93;;;0.30;1.00;;;;;;5107872;27;20438;-50
2023/12/05 11:36:22;;;;;;;59.17;29.50;;;0.40;1.00;;;;;;5111124;27;20932;-50
2023/12/05 11:38:48;;;;;;;55.60;28.33;;;0.30;1.00;;;;;;5096344;27;20870;-50
2023/12/05 11:41:17;;;;;;;52.50;28.07;;;0.40;1.00;;;;;;5094692;27;20480;-51
2023/12/05 11:43:43;;;;;;;55.40;28.97;;;0.40;1.00;;;;;;5094273;27;20468;-50
2023/12/05 11:46:09;;;;;;;52.13;28.87;;;0.50;1.00;;;;;;5100511;27;20431;-50
2023/12/05 11:48:35;;;;;;;56.70;28.60;;;0.50;1.00;;;;;;5095114;27;20791;-50
2023/12/05 11:51:02;;;;;;;57.90;29.97;;;0.50;1.00;;;;;;5095854;27;20541;-50
2023/12/05 11:53:28;;;;;;;55.27;28.93;;;0.40;1.00;;;;;;5101503;27;20276;-50
2023/12/05 11:55:53;;;;;;;53.00;28.80;;;0.40;1.00;;;;;;5106010;27;20437;-50
2023/12/05 11:58:29;;;;;;;55.53;27.57;;;0.40;1.00;;;;;;5096668;27;20432;-51
2023/12/05 12:01:07;;;;;;;52.30;27.53;;;0.40;1.00;;;;;;5100922;27;20193;-50
2023/12/05 12:03:52;;;;;;;57.97;29.80;;;0.40;1.00;;;;;;5104037;27;20437;-50
2023/12/05 12:06:19;;;;;;;54.30;28.07;;;0.40;1.00;;;;;;5103970;27;21085;-50
2023/12/05 12:08:48;;;;;;;54.30;29.00;;;0.40;1.00;;;;;;5109997;27;26549;-51
2023/12/05 12:11:14;;;;;;;64.13;31.60;;;0.40;1.00;;;;;;5102640;27;20449;-51
2023/12/05 12:13:40;;;;;;;66.20;32.80;;;0.40;1.00;;;;;;5098983;27;20443;-51
2023/12/05 12:16:06;;;;;;;64.63;32.37;;;0.40;1.00;;;;;;5107728;27;20193;-51
2023/12/05 12:18:32;;;;;;;58.03;29.60;;;0.50;1.00;;;;;;5102064;27;20177;-51
2023/12/05 12:20:59;;;;;;;55.87;30.00;;;0.50;1.00;;;;;;5100207;27;20188;-51
2023/12/05 12:23:25;;;;;;;55.50;28.63;;;0.60;1.00;;;;;;5102131;27;20311;-51
2023/12/05 12:25:57;;;;;;;60.93;29.10;;;0.60;1.00;;;;;;5100117;27;21086;-51
2023/12/05 12:28:28;;;;;;;55.17;28.30;;;0.50;1.00;;;;;;5095816;27;20177;-50
2023/12/05 12:30:58;;;;;;;58.20;29.47;;;0.50;1.00;;;;;;5100860;27;20451;-50